sensor_id;sensor_type;location;lat;lon;timestamp;temperature;humidity
52669;DHT22;59898;52.786;6.892;2023-02-15T00:01:35;6.20;99.90
52669;DHT22;59898;52.786;6.892;2023-02-15T00:04:56;6.20;99.90
52669;DHT22;59898;52.786;6.892;2023-02-15T00:08:17;6.20;99.90
52669;DHT22;59898;52.786;6.892;2023-02-15T00:11:38;6.40;99.90
52669;DHT22;59898;52.786;6.892;2023-02-15T00:15:10;6.40;99.90
52669;DHT22;59898;52.786;6.892;2023-02-15T00:18:33;6.50;99.90
52669;DHT22;59898;52.786;6.892;2023-02-15T00:21:54;6.50;99.90
52669;DHT22;59898;52.786;6.892;2023-02-15T00:25:14;6.40;99.90
52669;DHT22;59898;52.786;6.892;2023-02-15T00:28:35;6.30;99.90
52669;DHT22;59898;52.786;6.892;2023-02-15T00:31:56;6.10;99.90
52669;DHT22;59898;52.786;6.892;2023-02-15T00:35:17;6.00;99.90
52669;DHT22;59898;52.786;6.892;2023-02-15T00:38:37;5.90;99.90
52669;DHT22;59898;52.786;6.892;2023-02-15T00:41:58;5.90;99.90
52669;DHT22;59898;52.786;6.892;2023-02-15T00:45:19;5.80;99.90
52669;DHT22;59898;52.786;6.892;2023-02-15T00:48:41;6.00;99.90
52669;DHT22;59898;52.786;6.892;2023-02-15T00:52:02;5.90;99.90
52669;DHT22;59898;52.786;6.892;2023-02-15T00:55:23;6.00;99.90
52669;DHT22;59898;52.786;6.892;2023-02-15T00:58:43;6.10;99.90
52669;DHT22;59898;52.786;6.892;2023-02-15T01:02:04;6.20;99.90
52669;DHT22;59898;52.786;6.892;2023-02-15T01:05:25;6.30;99.90
52669;DHT22;59898;52.786;6.892;2023-02-15T01:08:46;6.30;99.90
52669;DHT22;59898;52.786;6.892;2023-02-15T01:12:07;6.30;99.90
52669;DHT22;59898;52.786;6.892;2023-02-15T01:15:29;6.10;99.90
52669;DHT22;59898;52.786;6.892;2023-02-15T01:18:49;6.00;99.90
52669;DHT22;59898;52.786;6.892;2023-02-15T01:22:10;5.80;99.90
52669;DHT22;59898;52.786;6.892;2023-02-15T01:25:33;5.70;99.90
52669;DHT22;59898;52.786;6.892;2023-02-15T01:28:54;5.60;99.90
52669;DHT22;59898;52.786;6.892;2023-02-15T01:32:14;5.70;99.90
52669;DHT22;59898;52.786;6.892;2023-02-15T01:35:36;5.70;99.90
52669;DHT22;59898;52.786;6.892;2023-02-15T01:38:57;5.70;99.90
52669;DHT22;59898;52.786;6.892;2023-02-15T01:42:22;5.70;99.90
52669;DHT22;59898;52.786;6.892;2023-02-15T01:45:46;5.60;99.90
52669;DHT22;59898;52.786;6.892;2023-02-15T01:49:19;5.40;99.90
52669;DHT22;59898;52.786;6.892;2023-02-15T01:52:45;5.30;99.90
52669;DHT22;59898;52.786;6.892;2023-02-15T01:56:15;5.40;99.90
52669;DHT22;59898;52.786;6.892;2023-02-15T01:59:39;5.40;99.90
52669;DHT22;59898;52.786;6.892;2023-02-15T02:03:01;5.50;99.90
52669;DHT22;59898;52.786;6.892;2023-02-15T02:06:25;5.50;99.90
52669;DHT22;59898;52.786;6.892;2023-02-15T02:09:47;5.40;99.90
52669;DHT22;59898;52.786;6.892;2023-02-15T02:13:08;5.40;99.90
52669;DHT22;59898;52.786;6.892;2023-02-15T02:16:51;5.40;99.90
52669;DHT22;59898;52.786;6.892;2023-02-15T02:20:17;5.40;99.90
52669;DHT22;59898;52.786;6.892;2023-02-15T02:27:50;5.30;99.90
52669;DHT22;59898;52.786;6.892;2023-02-15T02:46:15;5.30;99.90
52669;DHT22;59898;52.786;6.892;2023-02-15T02:49:41;5.30;99.90
52669;DHT22;59898;52.786;6.892;2023-02-15T02:53:02;5.30;99.90
52669;DHT22;59898;52.786;6.892;2023-02-15T02:56:40;5.30;99.90
52669;DHT22;59898;52.786;6.892;2023-02-15T03:00:04;5.20;99.90
52669;DHT22;59898;52.786;6.892;2023-02-15T03:03:33;5.20;99.90
52669;DHT22;59898;52.786;6.892;2023-02-15T03:06:58;5.10;99.90
52669;DHT22;59898;52.786;6.892;2023-02-15T03:10:22;5.00;99.90
52669;DHT22;59898;52.786;6.892;2023-02-15T03:13:46;5.10;99.90
52669;DHT22;59898;52.786;6.892;2023-02-15T03:17:08;4.90;99.90
52669;DHT22;59898;52.786;6.892;2023-02-15T03:20:33;4.80;99.90
52669;DHT22;59898;52.786;6.892;2023-02-15T03:24:06;4.80;99.90
52669;DHT22;59898;52.786;6.892;2023-02-15T03:27:37;4.70;99.90
52669;DHT22;59898;52.786;6.892;2023-02-15T03:31:02;4.70;99.90
52669;DHT22;59898;52.786;6.892;2023-02-15T03:34:25;4.70;99.90
52669;DHT22;59898;52.786;6.892;2023-02-15T03:37:57;4.60;99.90
52669;DHT22;59898;52.786;6.892;2023-02-15T03:41:19;4.70;99.90
52669;DHT22;59898;52.786;6.892;2023-02-15T03:48:11;4.40;99.90
52669;DHT22;59898;52.786;6.892;2023-02-15T03:51:35;4.40;99.90
52669;DHT22;59898;52.786;6.892;2023-02-15T03:54:58;4.60;99.90
52669;DHT22;59898;52.786;6.892;2023-02-15T03:58:19;4.30;99.90
52669;DHT22;59898;52.786;6.892;2023-02-15T04:05:25;4.30;99.90
52669;DHT22;59898;52.786;6.892;2023-02-15T04:08:45;4.30;99.90
52669;DHT22;59898;52.786;6.892;2023-02-15T04:12:24;4.30;99.90
52669;DHT22;59898;52.786;6.892;2023-02-15T04:15:45;4.60;99.90
52669;DHT22;59898;52.786;6.892;2023-02-15T04:19:24;4.30;99.90
52669;DHT22;59898;52.786;6.892;2023-02-15T04:23:06;4.30;99.90
52669;DHT22;59898;52.786;6.892;2023-02-15T04:26:45;4.50;99.90
52669;DHT22;59898;52.786;6.892;2023-02-15T04:30:09;4.40;99.90
52669;DHT22;59898;52.786;6.892;2023-02-15T04:33:30;4.40;99.90
52669;DHT22;59898;52.786;6.892;2023-02-15T04:36:51;4.50;99.90
52669;DHT22;59898;52.786;6.892;2023-02-15T04:40:13;4.40;99.90
52669;DHT22;59898;52.786;6.892;2023-02-15T04:43:34;4.40;99.90
52669;DHT22;59898;52.786;6.892;2023-02-15T04:46:54;4.30;99.90
52669;DHT22;59898;52.786;6.892;2023-02-15T04:50:15;4.70;99.90
52669;DHT22;59898;52.786;6.892;2023-02-15T04:53:36;4.30;99.90
52669;DHT22;59898;52.786;6.892;2023-02-15T04:56:57;4.10;99.90
52669;DHT22;59898;52.786;6.892;2023-02-15T05:00:18;4.30;99.90
52669;DHT22;59898;52.786;6.892;2023-02-15T05:03:38;4.10;99.90
52669;DHT22;59898;52.786;6.892;2023-02-15T05:06:59;4.00;99.90
52669;DHT22;59898;52.786;6.892;2023-02-15T05:10:20;4.00;99.90
52669;DHT22;59898;52.786;6.892;2023-02-15T05:13:41;4.10;99.90
52669;DHT22;59898;52.786;6.892;2023-02-15T05:17:01;4.10;99.90
52669;DHT22;59898;52.786;6.892;2023-02-15T05:20:23;4.20;99.90
52669;DHT22;59898;52.786;6.892;2023-02-15T05:23:44;3.90;99.90
52669;DHT22;59898;52.786;6.892;2023-02-15T05:27:05;3.80;99.90
52669;DHT22;59898;52.786;6.892;2023-02-15T05:30:44;3.70;99.90
52669;DHT22;59898;52.786;6.892;2023-02-15T05:34:04;3.90;99.90
52669;DHT22;59898;52.786;6.892;2023-02-15T05:37:25;3.70;99.90
52669;DHT22;59898;52.786;6.892;2023-02-15T05:40:46;4.20;99.90
52669;DHT22;59898;52.786;6.892;2023-02-15T05:44:06;3.60;99.90
52669;DHT22;59898;52.786;6.892;2023-02-15T05:47:27;4.90;99.90
52669;DHT22;59898;52.786;6.892;2023-02-15T05:51:04;3.60;99.90
52669;DHT22;59898;52.786;6.892;2023-02-15T05:54:25;3.60;99.90
52669;DHT22;59898;52.786;6.892;2023-02-15T05:57:46;3.60;99.90
52669;DHT22;59898;52.786;6.892;2023-02-15T06:01:12;3.50;99.90
52669;DHT22;59898;52.786;6.892;2023-02-15T06:04:33;3.50;99.90
52669;DHT22;59898;52.786;6.892;2023-02-15T06:07:53;3.40;99.90
52669;DHT22;59898;52.786;6.892;2023-02-15T06:11:14;3.40;99.90
52669;DHT22;59898;52.786;6.892;2023-02-15T06:14:35;3.40;99.90
52669;DHT22;59898;52.786;6.892;2023-02-15T06:17:55;3.90;99.90
52669;DHT22;59898;52.786;6.892;2023-02-15T06:21:16;3.30;99.90
52669;DHT22;59898;52.786;6.892;2023-02-15T06:24:37;3.90;99.90
52669;DHT22;59898;52.786;6.892;2023-02-15T06:27:57;3.60;99.90
52669;DHT22;59898;52.786;6.892;2023-02-15T06:31:18;3.20;99.90
52669;DHT22;59898;52.786;6.892;2023-02-15T06:34:38;4.00;99.90
52669;DHT22;59898;52.786;6.892;2023-02-15T06:37:59;2.00;99.90
52669;DHT22;59898;52.786;6.892;2023-02-15T06:41:20;3.40;99.90
52669;DHT22;59898;52.786;6.892;2023-02-15T06:44:41;3.20;99.90
52669;DHT22;59898;52.786;6.892;2023-02-15T06:48:02;3.40;99.90
52669;DHT22;59898;52.786;6.892;2023-02-15T06:51:22;3.10;99.90
52669;DHT22;59898;52.786;6.892;2023-02-15T06:54:43;3.10;99.90
52669;DHT22;59898;52.786;6.892;2023-02-15T06:58:04;3.00;99.90
52669;DHT22;59898;52.786;6.892;2023-02-15T07:01:24;3.10;99.90
52669;DHT22;59898;52.786;6.892;2023-02-15T07:04:45;3.00;99.90
52669;DHT22;59898;52.786;6.892;2023-02-15T07:08:06;3.50;99.90
52669;DHT22;59898;52.786;6.892;2023-02-15T07:11:28;3.00;99.90
52669;DHT22;59898;52.786;6.892;2023-02-15T07:15:08;3.10;99.90
52669;DHT22;59898;52.786;6.892;2023-02-15T07:18:29;3.50;99.90
52669;DHT22;59898;52.786;6.892;2023-02-15T07:21:50;3.00;99.90
52669;DHT22;59898;52.786;6.892;2023-02-15T07:25:11;3.10;99.90
52669;DHT22;59898;52.786;6.892;2023-02-15T07:28:33;3.10;99.90
52669;DHT22;59898;52.786;6.892;2023-02-15T07:31:55;3.20;99.90
52669;DHT22;59898;52.786;6.892;2023-02-15T07:35:15;3.50;99.90
52669;DHT22;59898;52.786;6.892;2023-02-15T07:38:37;3.60;99.90
52669;DHT22;59898;52.786;6.892;2023-02-15T07:42:00;3.70;99.90
52669;DHT22;59898;52.786;6.892;2023-02-15T07:45:23;3.90;99.90
52669;DHT22;59898;52.786;6.892;2023-02-15T07:48:45;4.20;99.90
52669;DHT22;59898;52.786;6.892;2023-02-15T07:52:06;4.80;99.90
52669;DHT22;59898;52.786;6.892;2023-02-15T07:55:26;5.90;99.90
52669;DHT22;59898;52.786;6.892;2023-02-15T07:58:47;6.30;99.90
52669;DHT22;59898;52.786;6.892;2023-02-15T08:02:11;7.20;99.90
52669;DHT22;59898;52.786;6.892;2023-02-15T08:05:31;7.80;99.90
52669;DHT22;59898;52.786;6.892;2023-02-15T08:08:52;8.30;99.90
52669;DHT22;59898;52.786;6.892;2023-02-15T08:12:13;8.80;99.90
52669;DHT22;59898;52.786;6.892;2023-02-15T08:15:34;8.80;99.90
52669;DHT22;59898;52.786;6.892;2023-02-15T08:18:56;8.90;99.90
52669;DHT22;59898;52.786;6.892;2023-02-15T08:22:20;9.10;99.90
52669;DHT22;59898;52.786;6.892;2023-02-15T08:25:41;9.30;99.90
52669;DHT22;59898;52.786;6.892;2023-02-15T08:29:02;9.70;99.90
52669;DHT22;59898;52.786;6.892;2023-02-15T08:32:23;9.80;99.90
52669;DHT22;59898;52.786;6.892;2023-02-15T08:35:43;9.60;99.90
52669;DHT22;59898;52.786;6.892;2023-02-15T08:39:05;9.40;99.90
52669;DHT22;59898;52.786;6.892;2023-02-15T08:42:26;9.10;99.90
52669;DHT22;59898;52.786;6.892;2023-02-15T08:45:46;8.70;99.90
52669;DHT22;59898;52.786;6.892;2023-02-15T08:49:08;8.40;99.90
52669;DHT22;59898;52.786;6.892;2023-02-15T08:52:29;8.30;99.90
52669;DHT22;59898;52.786;6.892;2023-02-15T08:55:56;8.30;99.90
52669;DHT22;59898;52.786;6.892;2023-02-15T08:59:22;8.30;99.90
52669;DHT22;59898;52.786;6.892;2023-02-15T09:02:43;8.20;99.90
52669;DHT22;59898;52.786;6.892;2023-02-15T09:06:04;8.10;99.90
52669;DHT22;59898;52.786;6.892;2023-02-15T09:09:25;8.20;99.90
52669;DHT22;59898;52.786;6.892;2023-02-15T09:12:46;8.50;99.90
52669;DHT22;59898;52.786;6.892;2023-02-15T09:16:08;8.40;99.90
52669;DHT22;59898;52.786;6.892;2023-02-15T09:19:29;8.30;99.90
52669;DHT22;59898;52.786;6.892;2023-02-15T09:22:51;7.70;99.90
52669;DHT22;59898;52.786;6.892;2023-02-15T09:26:15;7.90;99.90
52669;DHT22;59898;52.786;6.892;2023-02-15T09:29:36;7.90;99.90
52669;DHT22;59898;52.786;6.892;2023-02-15T09:32:56;8.00;99.90
52669;DHT22;59898;52.786;6.892;2023-02-15T09:39:43;8.30;99.90
52669;DHT22;59898;52.786;6.892;2023-02-15T09:43:07;8.30;99.90
52669;DHT22;59898;52.786;6.892;2023-02-15T09:46:44;8.30;99.90
52669;DHT22;59898;52.786;6.892;2023-02-15T09:57:51;9.20;99.90
52669;DHT22;59898;52.786;6.892;2023-02-15T10:05:09;9.20;99.90
52669;DHT22;59898;52.786;6.892;2023-02-15T10:09:05;9.20;99.90
52669;DHT22;59898;52.786;6.892;2023-02-15T10:12:46;9.20;99.90
52669;DHT22;59898;52.786;6.892;2023-02-15T10:16:24;9.30;99.90
52669;DHT22;59898;52.786;6.892;2023-02-15T10:26:46;9.50;99.90
52669;DHT22;59898;52.786;6.892;2023-02-15T10:33:41;9.70;99.90
52669;DHT22;59898;52.786;6.892;2023-02-15T10:37:25;9.70;99.90
52669;DHT22;59898;52.786;6.892;2023-02-15T10:44:39;9.90;99.90
52669;DHT22;59898;52.786;6.892;2023-02-15T10:48:22;9.90;99.90
52669;DHT22;59898;52.786;6.892;2023-02-15T10:51:53;10.00;99.90
52669;DHT22;59898;52.786;6.892;2023-02-15T11:06:20;10.30;99.90
52669;DHT22;59898;52.786;6.892;2023-02-15T11:09:49;10.20;99.90
52669;DHT22;59898;52.786;6.892;2023-02-15T11:13:18;10.40;99.90
52669;DHT22;59898;52.786;6.892;2023-02-15T11:16:45;10.60;99.90
52669;DHT22;59898;52.786;6.892;2023-02-15T11:23:46;11.40;99.90
52669;DHT22;59898;52.786;6.892;2023-02-15T11:27:27;11.30;99.90
52669;DHT22;59898;52.786;6.892;2023-02-15T11:30:55;11.50;99.90
52669;DHT22;59898;52.786;6.892;2023-02-15T11:34:27;11.90;99.90
52669;DHT22;59898;52.786;6.892;2023-02-15T11:41:36;12.50;99.90
52669;DHT22;59898;52.786;6.892;2023-02-15T11:44:59;12.50;99.90
52669;DHT22;59898;52.786;6.892;2023-02-15T11:48:22;12.50;99.90
52669;DHT22;59898;52.786;6.892;2023-02-15T11:51:43;12.40;99.90
52669;DHT22;59898;52.786;6.892;2023-02-15T11:55:13;12.60;99.90
52669;DHT22;59898;52.786;6.892;2023-02-15T12:02:21;13.00;99.90
52669;DHT22;59898;52.786;6.892;2023-02-15T12:05:45;12.70;99.90
52669;DHT22;59898;52.786;6.892;2023-02-15T12:13:13;12.30;99.90
52669;DHT22;59898;52.786;6.892;2023-02-15T12:16:50;12.30;99.90
52669;DHT22;59898;52.786;6.892;2023-02-15T12:23:50;12.50;99.90
52669;DHT22;59898;52.786;6.892;2023-02-15T12:27:20;12.50;99.90
52669;DHT22;59898;52.786;6.892;2023-02-15T12:30:42;12.40;99.90
52669;DHT22;59898;52.786;6.892;2023-02-15T12:34:11;12.50;99.90
52669;DHT22;59898;52.786;6.892;2023-02-15T12:37:33;12.80;99.90
52669;DHT22;59898;52.786;6.892;2023-02-15T12:41:04;12.90;99.90
52669;DHT22;59898;52.786;6.892;2023-02-15T12:44:27;13.00;99.90
52669;DHT22;59898;52.786;6.892;2023-02-15T12:51:28;12.70;99.90
52669;DHT22;59898;52.786;6.892;2023-02-15T12:54:49;12.70;99.90
52669;DHT22;59898;52.786;6.892;2023-02-15T12:58:21;12.50;99.90
52669;DHT22;59898;52.786;6.892;2023-02-15T13:01:43;12.40;99.90
52669;DHT22;59898;52.786;6.892;2023-02-15T13:05:31;12.40;99.90
52669;DHT22;59898;52.786;6.892;2023-02-15T13:08:58;12.40;99.90
52669;DHT22;59898;52.786;6.892;2023-02-15T13:12:27;12.40;99.90
52669;DHT22;59898;52.786;6.892;2023-02-15T13:15:53;12.40;99.90
52669;DHT22;59898;52.786;6.892;2023-02-15T13:19:22;12.60;99.90
52669;DHT22;59898;52.786;6.892;2023-02-15T13:22:46;12.60;99.90
52669;DHT22;59898;52.786;6.892;2023-02-15T13:26:14;12.70;99.90
52669;DHT22;59898;52.786;6.892;2023-02-15T13:29:37;12.70;99.90
52669;DHT22;59898;52.786;6.892;2023-02-15T13:33:03;12.80;99.90
52669;DHT22;59898;52.786;6.892;2023-02-15T13:41:15;12.50;99.90
52669;DHT22;59898;52.786;6.892;2023-02-15T13:44:41;12.50;99.90
52669;DHT22;59898;52.786;6.892;2023-02-15T13:52:08;12.40;99.90
52669;DHT22;59898;52.786;6.892;2023-02-15T13:55:52;12.40;99.90
52669;DHT22;59898;52.786;6.892;2023-02-15T14:03:26;12.30;99.90
52669;DHT22;59898;52.786;6.892;2023-02-15T14:17:42;12.20;99.90
52669;DHT22;59898;52.786;6.892;2023-02-15T14:28:16;12.10;99.90
52669;DHT22;59898;52.786;6.892;2023-02-15T14:31:41;12.10;99.90
52669;DHT22;59898;52.786;6.892;2023-02-15T14:35:08;12.10;99.90
52669;DHT22;59898;52.786;6.892;2023-02-15T14:42:30;12.00;99.90
52669;DHT22;59898;52.786;6.892;2023-02-15T14:49:25;12.00;99.90
52669;DHT22;59898;52.786;6.892;2023-02-15T14:56:46;11.90;99.90
52669;DHT22;59898;52.786;6.892;2023-02-15T15:00:30;11.90;99.90
52669;DHT22;59898;52.786;6.892;2023-02-15T15:03:59;11.90;99.90
52669;DHT22;59898;52.786;6.892;2023-02-15T15:07:24;11.90;99.90
52669;DHT22;59898;52.786;6.892;2023-02-15T15:10:47;11.90;99.90
52669;DHT22;59898;52.786;6.892;2023-02-15T15:14:09;11.90;99.90
52669;DHT22;59898;52.786;6.892;2023-02-15T15:20:59;11.90;99.90
52669;DHT22;59898;52.786;6.892;2023-02-15T15:27:59;11.80;99.90
52669;DHT22;59898;52.786;6.892;2023-02-15T15:49:55;11.60;99.90
52669;DHT22;59898;52.786;6.892;2023-02-15T15:53:20;11.50;99.90
52669;DHT22;59898;52.786;6.892;2023-02-15T15:56:46;11.50;99.90
52669;DHT22;59898;52.786;6.892;2023-02-15T16:03:52;11.30;99.90
52669;DHT22;59898;52.786;6.892;2023-02-15T16:07:33;11.20;99.90
52669;DHT22;59898;52.786;6.892;2023-02-15T16:10:54;11.20;99.90
52669;DHT22;59898;52.786;6.892;2023-02-15T16:17:46;11.10;99.90
52669;DHT22;59898;52.786;6.892;2023-02-15T16:21:18;11.10;99.90
52669;DHT22;59898;52.786;6.892;2023-02-15T16:28:18;11.00;99.90
52669;DHT22;59898;52.786;6.892;2023-02-15T16:31:40;10.90;99.90
52669;DHT22;59898;52.786;6.892;2023-02-15T16:35:02;10.90;99.90
52669;DHT22;59898;52.786;6.892;2023-02-15T16:42:07;10.70;99.90
52669;DHT22;59898;52.786;6.892;2023-02-15T16:45:29;10.60;99.90
52669;DHT22;59898;52.786;6.892;2023-02-15T16:48:54;10.60;99.90
52669;DHT22;59898;52.786;6.892;2023-02-15T16:52:22;10.60;99.90
52669;DHT22;59898;52.786;6.892;2023-02-15T16:55:43;10.50;99.90
52669;DHT22;59898;52.786;6.892;2023-02-15T16:59:23;10.50;99.90
52669;DHT22;59898;52.786;6.892;2023-02-15T17:03:01;10.50;99.90
52669;DHT22;59898;52.786;6.892;2023-02-15T17:06:27;10.50;99.90
52669;DHT22;59898;52.786;6.892;2023-02-15T17:09:59;10.50;99.90
52669;DHT22;59898;52.786;6.892;2023-02-15T17:13:20;10.40;99.90
52669;DHT22;59898;52.786;6.892;2023-02-15T17:20:14;10.20;99.90
52669;DHT22;59898;52.786;6.892;2023-02-15T17:23:50;10.20;99.90
52669;DHT22;59898;52.786;6.892;2023-02-15T17:27:23;10.10;99.90
52669;DHT22;59898;52.786;6.892;2023-02-15T17:30:45;10.00;99.90
52669;DHT22;59898;52.786;6.892;2023-02-15T17:38:19;9.90;99.90
52669;DHT22;59898;52.786;6.892;2023-02-15T17:41:39;9.80;99.90
52669;DHT22;59898;52.786;6.892;2023-02-15T17:45:01;9.70;99.90
52669;DHT22;59898;52.786;6.892;2023-02-15T17:48:32;9.70;99.90
52669;DHT22;59898;52.786;6.892;2023-02-15T17:51:53;9.60;99.90
52669;DHT22;59898;52.786;6.892;2023-02-15T17:55:17;9.60;99.90
52669;DHT22;59898;52.786;6.892;2023-02-15T17:58:58;9.50;99.90
52669;DHT22;59898;52.786;6.892;2023-02-15T18:02:18;9.50;99.90
52669;DHT22;59898;52.786;6.892;2023-02-15T18:05:58;9.50;99.90
52669;DHT22;59898;52.786;6.892;2023-02-15T18:09:37;9.40;99.90
52669;DHT22;59898;52.786;6.892;2023-02-15T18:13:16;9.40;99.90
52669;DHT22;59898;52.786;6.892;2023-02-15T18:16:42;9.40;99.90
52669;DHT22;59898;52.786;6.892;2023-02-15T18:20:19;9.40;99.90
52669;DHT22;59898;52.786;6.892;2023-02-15T18:23:40;9.40;99.90
52669;DHT22;59898;52.786;6.892;2023-02-15T18:27:04;9.40;99.90
52669;DHT22;59898;52.786;6.892;2023-02-15T18:30:24;9.40;99.90
52669;DHT22;59898;52.786;6.892;2023-02-15T18:33:57;9.40;99.90
52669;DHT22;59898;52.786;6.892;2023-02-15T18:37:20;9.40;99.90
52669;DHT22;59898;52.786;6.892;2023-02-15T18:40:41;9.40;99.90
52669;DHT22;59898;52.786;6.892;2023-02-15T18:44:02;9.30;99.90
52669;DHT22;59898;52.786;6.892;2023-02-15T18:47:23;9.30;99.90
52669;DHT22;59898;52.786;6.892;2023-02-15T18:50:44;9.30;99.90
52669;DHT22;59898;52.786;6.892;2023-02-15T18:54:10;9.30;99.90
52669;DHT22;59898;52.786;6.892;2023-02-15T18:57:34;9.30;99.90
52669;DHT22;59898;52.786;6.892;2023-02-15T19:00:54;9.30;99.90
52669;DHT22;59898;52.786;6.892;2023-02-15T19:04:18;9.20;99.90
52669;DHT22;59898;52.786;6.892;2023-02-15T19:07:39;9.20;99.90
52669;DHT22;59898;52.786;6.892;2023-02-15T19:11:00;9.10;99.90
52669;DHT22;59898;52.786;6.892;2023-02-15T19:14:30;9.10;99.90
52669;DHT22;59898;52.786;6.892;2023-02-15T19:17:51;9.00;99.90
52669;DHT22;59898;52.786;6.892;2023-02-15T19:21:14;8.90;99.90
52669;DHT22;59898;52.786;6.892;2023-02-15T19:24:39;9.00;99.90
52669;DHT22;59898;52.786;6.892;2023-02-15T19:28:08;9.00;99.90
52669;DHT22;59898;52.786;6.892;2023-02-15T19:31:29;9.00;99.90
52669;DHT22;59898;52.786;6.892;2023-02-15T19:34:50;8.90;99.90
52669;DHT22;59898;52.786;6.892;2023-02-15T19:38:18;9.00;99.90
52669;DHT22;59898;52.786;6.892;2023-02-15T19:41:39;9.00;99.90
52669;DHT22;59898;52.786;6.892;2023-02-15T19:45:11;8.90;99.90
52669;DHT22;59898;52.786;6.892;2023-02-15T19:48:32;8.90;99.90
52669;DHT22;59898;52.786;6.892;2023-02-15T19:51:53;8.80;99.90
52669;DHT22;59898;52.786;6.892;2023-02-15T19:58:45;8.80;99.90
52669;DHT22;59898;52.786;6.892;2023-02-15T20:02:06;8.70;99.90
52669;DHT22;59898;52.786;6.892;2023-02-15T20:05:30;8.70;99.90
52669;DHT22;59898;52.786;6.892;2023-02-15T20:08:54;8.60;99.90
52669;DHT22;59898;52.786;6.892;2023-02-15T20:12:23;8.60;99.90
52669;DHT22;59898;52.786;6.892;2023-02-15T20:15:44;8.60;99.90
52669;DHT22;59898;52.786;6.892;2023-02-15T20:19:05;8.60;99.90
52669;DHT22;59898;52.786;6.892;2023-02-15T20:22:26;8.60;99.90
52669;DHT22;59898;52.786;6.892;2023-02-15T20:25:48;8.60;99.90
52669;DHT22;59898;52.786;6.892;2023-02-15T20:29:14;8.50;99.90
52669;DHT22;59898;52.786;6.892;2023-02-15T20:32:35;8.40;99.90
52669;DHT22;59898;52.786;6.892;2023-02-15T20:35:56;8.40;99.90
52669;DHT22;59898;52.786;6.892;2023-02-15T20:39:18;8.40;99.90
52669;DHT22;59898;52.786;6.892;2023-02-15T20:42:40;8.40;99.90
52669;DHT22;59898;52.786;6.892;2023-02-15T20:46:01;8.30;99.90
52669;DHT22;59898;52.786;6.892;2023-02-15T20:49:23;8.30;99.90
52669;DHT22;59898;52.786;6.892;2023-02-15T20:52:45;8.30;99.90
52669;DHT22;59898;52.786;6.892;2023-02-15T20:56:18;8.30;99.90
52669;DHT22;59898;52.786;6.892;2023-02-15T20:59:40;8.30;99.90
52669;DHT22;59898;52.786;6.892;2023-02-15T21:03:01;8.30;99.90
52669;DHT22;59898;52.786;6.892;2023-02-15T21:06:21;8.20;99.90
52669;DHT22;59898;52.786;6.892;2023-02-15T21:09:43;8.20;99.90
52669;DHT22;59898;52.786;6.892;2023-02-15T21:13:04;8.20;99.90
52669;DHT22;59898;52.786;6.892;2023-02-15T21:16:25;8.20;99.90
52669;DHT22;59898;52.786;6.892;2023-02-15T21:19:46;8.20;99.90
52669;DHT22;59898;52.786;6.892;2023-02-15T21:23:10;8.20;99.90
52669;DHT22;59898;52.786;6.892;2023-02-15T21:26:33;8.20;99.90
52669;DHT22;59898;52.786;6.892;2023-02-15T21:29:54;8.10;99.90
52669;DHT22;59898;52.786;6.892;2023-02-15T21:33:15;8.00;99.90
52669;DHT22;59898;52.786;6.892;2023-02-15T21:36:36;8.00;99.90
52669;DHT22;59898;52.786;6.892;2023-02-15T21:39:57;7.90;99.90
52669;DHT22;59898;52.786;6.892;2023-02-15T21:43:21;7.90;99.90
52669;DHT22;59898;52.786;6.892;2023-02-15T21:47:01;7.90;99.90
52669;DHT22;59898;52.786;6.892;2023-02-15T21:50:40;7.90;99.90
52669;DHT22;59898;52.786;6.892;2023-02-15T21:54:20;7.90;99.90
52669;DHT22;59898;52.786;6.892;2023-02-15T21:57:40;7.90;99.90
52669;DHT22;59898;52.786;6.892;2023-02-15T22:01:01;7.90;99.90
52669;DHT22;59898;52.786;6.892;2023-02-15T22:04:27;7.90;99.90
52669;DHT22;59898;52.786;6.892;2023-02-15T22:07:48;7.90;99.90
52669;DHT22;59898;52.786;6.892;2023-02-15T22:11:15;7.90;99.90
52669;DHT22;59898;52.786;6.892;2023-02-15T22:14:38;7.90;99.90
52669;DHT22;59898;52.786;6.892;2023-02-15T22:17:59;7.90;99.90
52669;DHT22;59898;52.786;6.892;2023-02-15T22:21:20;7.90;99.90
52669;DHT22;59898;52.786;6.892;2023-02-15T22:24:42;7.90;99.90
52669;DHT22;59898;52.786;6.892;2023-02-15T22:28:03;7.90;99.90
52669;DHT22;59898;52.786;6.892;2023-02-15T22:31:24;8.00;99.90
52669;DHT22;59898;52.786;6.892;2023-02-15T22:34:45;8.00;99.90
52669;DHT22;59898;52.786;6.892;2023-02-15T22:38:05;7.90;99.90
52669;DHT22;59898;52.786;6.892;2023-02-15T22:41:29;7.90;99.90
52669;DHT22;59898;52.786;6.892;2023-02-15T22:44:54;7.90;99.90
52669;DHT22;59898;52.786;6.892;2023-02-15T22:48:20;7.90;99.90
52669;DHT22;59898;52.786;6.892;2023-02-15T22:51:47;7.90;99.90
52669;DHT22;59898;52.786;6.892;2023-02-15T22:55:13;7.90;99.90
52669;DHT22;59898;52.786;6.892;2023-02-15T22:58:34;7.90;99.90
52669;DHT22;59898;52.786;6.892;2023-02-15T23:01:55;7.90;99.90
52669;DHT22;59898;52.786;6.892;2023-02-15T23:05:21;7.90;99.90
52669;DHT22;59898;52.786;6.892;2023-02-15T23:08:42;7.80;99.90
52669;DHT22;59898;52.786;6.892;2023-02-15T23:12:24;7.80;99.90
52669;DHT22;59898;52.786;6.892;2023-02-15T23:15:48;7.80;99.90
52669;DHT22;59898;52.786;6.892;2023-02-15T23:19:11;7.80;99.90
52669;DHT22;59898;52.786;6.892;2023-02-15T23:22:41;7.70;99.90
52669;DHT22;59898;52.786;6.892;2023-02-15T23:26:03;7.80;99.90
52669;DHT22;59898;52.786;6.892;2023-02-15T23:29:24;7.70;99.90
52669;DHT22;59898;52.786;6.892;2023-02-15T23:32:44;7.60;99.90
52669;DHT22;59898;52.786;6.892;2023-02-15T23:36:07;7.60;99.90
52669;DHT22;59898;52.786;6.892;2023-02-15T23:39:33;7.60;99.90
52669;DHT22;59898;52.786;6.892;2023-02-15T23:43:19;7.60;99.90
52669;DHT22;59898;52.786;6.892;2023-02-15T23:46:44;7.60;99.90
52669;DHT22;59898;52.786;6.892;2023-02-15T23:50:18;7.50;99.90
52669;DHT22;59898;52.786;6.892;2023-02-15T23:53:39;7.50;99.90
52669;DHT22;59898;52.786;6.892;2023-02-15T23:57:01;7.50;99.90
